sensor_id;sensor_type;location;lat;lon;timestamp;pressure;altitude;pressure_sealevel;temperature;humidity
40155;BME280;25875;48.202;16.334;2023-06-10T00:01:38;98705.16;;;17.53;69.79
40155;BME280;25875;48.202;16.334;2023-06-10T00:04:05;98703.91;;;17.47;70.22
40155;BME280;25875;48.202;16.334;2023-06-10T00:06:31;98704.75;;;17.48;70.11
40155;BME280;25875;48.202;16.334;2023-06-10T00:09:02;98652.63;;;17.13;70.36
40155;BME280;25875;48.202;16.334;2023-06-10T00:11:30;98698.84;;;17.44;70.13
40155;BME280;25875;48.202;16.334;2023-06-10T00:13:57;98707.00;;;17.43;70.26
40155;BME280;25875;48.202;16.334;2023-06-10T00:16:24;98702.78;;;17.40;70.34
40155;BME280;25875;48.202;16.334;2023-06-10T00:18:52;98698.72;;;17.36;70.48
40155;BME280;25875;48.202;16.334;2023-06-10T00:21:21;98706.59;;;17.38;70.36
40155;BME280;25875;48.202;16.334;2023-06-10T00:23:50;98709.44;;;17.36;70.35
40155;BME280;25875;48.202;16.334;2023-06-10T00:26:16;98705.75;;;17.37;70.10
40155;BME280;25875;48.202;16.334;2023-06-10T00:28:43;98700.53;;;17.36;70.17
40155;BME280;25875;48.202;16.334;2023-06-10T00:31:10;98700.69;;;17.34;70.26
40155;BME280;25875;48.202;16.334;2023-06-10T00:33:37;98711.41;;;17.34;70.38
40155;BME280;25875;48.202;16.334;2023-06-10T00:36:05;98707.03;;;17.33;70.75
40155;BME280;25875;48.202;16.334;2023-06-10T00:38:32;98716.91;;;17.33;70.66
40155;BME280;25875;48.202;16.334;2023-06-10T00:40:59;98711.53;;;17.33;70.94
40155;BME280;25875;48.202;16.334;2023-06-10T00:43:26;98543.34;;;16.31;70.69
40155;BME280;25875;48.202;16.334;2023-06-10T00:45:53;98627.84;;;16.73;71.13
40155;BME280;25875;48.202;16.334;2023-06-10T00:48:20;98713.22;;;17.34;70.59
40155;BME280;25875;48.202;16.334;2023-06-10T00:50:47;98715.91;;;17.34;70.86
40155;BME280;25875;48.202;16.334;2023-06-10T00:53:16;98723.38;;;17.30;70.94
40155;BME280;25875;48.202;16.334;2023-06-10T00:55:44;98719.16;;;17.27;71.01
40155;BME280;25875;48.202;16.334;2023-06-10T00:58:11;98622.09;;;16.67;70.74
40155;BME280;25875;48.202;16.334;2023-06-10T01:00:38;98712.66;;;17.30;70.69
40155;BME280;25875;48.202;16.334;2023-06-10T01:03:04;98726.91;;;17.30;70.81
40155;BME280;25875;48.202;16.334;2023-06-10T01:05:33;98724.22;;;17.30;71.09
40155;BME280;25875;48.202;16.334;2023-06-10T01:08:03;98732.41;;;17.29;71.05
40155;BME280;25875;48.202;16.334;2023-06-10T01:10:33;98730.16;;;17.24;71.27
40155;BME280;25875;48.202;16.334;2023-06-10T01:13:03;98683.06;;;16.93;71.15
40155;BME280;25875;48.202;16.334;2023-06-10T01:15:33;98728.47;;;17.23;71.49
40155;BME280;25875;48.202;16.334;2023-06-10T01:18:02;98724.94;;;17.23;71.24
40155;BME280;25875;48.202;16.334;2023-06-10T01:20:30;98597.41;;;16.45;71.15
40155;BME280;25875;48.202;16.334;2023-06-10T01:22:59;98699.28;;;17.01;71.61
40155;BME280;25875;48.202;16.334;2023-06-10T01:25:27;98734.53;;;17.25;71.43
40155;BME280;25875;48.202;16.334;2023-06-10T01:28:00;98731.84;;;17.25;72.34
40155;BME280;25875;48.202;16.334;2023-06-10T01:30:39;98736.06;;;17.28;72.23
40155;BME280;25875;48.202;16.334;2023-06-10T01:33:12;98624.63;;;16.69;72.07
40155;BME280;25875;48.202;16.334;2023-06-10T01:35:43;98736.63;;;17.31;72.60
40155;BME280;25875;48.202;16.334;2023-06-10T01:38:12;98728.47;;;17.33;72.00
40155;BME280;25875;48.202;16.334;2023-06-10T01:40:41;98739.03;;;17.35;72.01
40155;BME280;25875;48.202;16.334;2023-06-10T01:43:09;98739.03;;;17.35;72.22
40155;BME280;25875;48.202;16.334;2023-06-10T01:45:36;98729.16;;;17.35;72.52
40155;BME280;25875;48.202;16.334;2023-06-10T01:48:03;98731.69;;;17.37;72.24
40155;BME280;25875;48.202;16.334;2023-06-10T01:50:29;98722.66;;;17.38;72.68
40155;BME280;25875;48.202;16.334;2023-06-10T01:52:57;98734.09;;;17.40;72.39
40155;BME280;25875;48.202;16.334;2023-06-10T01:55:26;98718.03;;;17.40;72.47
40155;BME280;25875;48.202;16.334;2023-06-10T01:57:53;98729.72;;;17.39;72.92
40155;BME280;25875;48.202;16.334;2023-06-10T02:00:20;98727.88;;;17.39;72.85
40155;BME280;25875;48.202;16.334;2023-06-10T02:02:47;98726.91;;;17.40;72.85
40155;BME280;25875;48.202;16.334;2023-06-10T02:05:15;98648.69;;;16.88;73.03
40155;BME280;25875;48.202;16.334;2023-06-10T02:07:43;98740.16;;;17.42;72.97
40155;BME280;25875;48.202;16.334;2023-06-10T02:10:10;98739.03;;;17.44;73.28
40155;BME280;25875;48.202;16.334;2023-06-10T02:12:38;98741.56;;;17.46;73.45
40155;BME280;25875;48.202;16.334;2023-06-10T02:15:06;98739.72;;;17.46;72.90
40155;BME280;25875;48.202;16.334;2023-06-10T02:17:33;98737.03;;;17.46;73.37
40155;BME280;25875;48.202;16.334;2023-06-10T02:20:00;98738.72;;;17.47;73.41
40155;BME280;25875;48.202;16.334;2023-06-10T02:22:32;98737.03;;;17.46;73.38
40155;BME280;25875;48.202;16.334;2023-06-10T02:25:00;98740.72;;;17.45;73.39
40155;BME280;25875;48.202;16.334;2023-06-10T02:27:26;98741.56;;;17.46;73.38
40155;BME280;25875;48.202;16.334;2023-06-10T02:29:55;98737.88;;;17.47;73.25
40155;BME280;25875;48.202;16.334;2023-06-10T02:32:22;98701.53;;;17.25;72.93
40155;BME280;25875;48.202;16.334;2023-06-10T02:34:49;98734.38;;;17.46;73.05
40155;BME280;25875;48.202;16.334;2023-06-10T02:37:16;98732.38;;;17.48;73.17
40155;BME280;25875;48.202;16.334;2023-06-10T02:39:43;98729.84;;;17.47;73.24
40155;BME280;25875;48.202;16.334;2023-06-10T02:42:09;98735.22;;;17.47;73.05
40155;BME280;25875;48.202;16.334;2023-06-10T02:44:37;98725.34;;;17.47;73.01
40155;BME280;25875;48.202;16.334;2023-06-10T02:47:05;98700.69;;;17.24;73.32
40155;BME280;25875;48.202;16.334;2023-06-10T02:49:32;98735.22;;;17.47;73.21
40155;BME280;25875;48.202;16.334;2023-06-10T02:51:59;98738.03;;;17.45;73.50
40155;BME280;25875;48.202;16.334;2023-06-10T02:54:27;98740.72;;;17.45;73.18
40155;BME280;25875;48.202;16.334;2023-06-10T02:56:54;98741.84;;;17.43;73.28
40155;BME280;25875;48.202;16.334;2023-06-10T02:59:22;98747.19;;;17.43;73.54
40155;BME280;25875;48.202;16.334;2023-06-10T03:01:48;98742.69;;;17.43;73.24
40155;BME280;25875;48.202;16.334;2023-06-10T03:04:17;98748.19;;;17.42;73.50
40155;BME280;25875;48.202;16.334;2023-06-10T03:06:43;98745.38;;;17.43;73.21
40155;BME280;25875;48.202;16.334;2023-06-10T03:09:12;98748.88;;;17.44;73.44
40155;BME280;25875;48.202;16.334;2023-06-10T03:11:41;98749.72;;;17.44;73.42
40155;BME280;25875;48.202;16.334;2023-06-10T03:14:08;98757.63;;;17.46;73.58
40155;BME280;25875;48.202;16.334;2023-06-10T03:16:35;98750.44;;;17.46;73.42
40155;BME280;25875;48.202;16.334;2023-06-10T03:19:05;98747.63;;;17.48;73.67
40155;BME280;25875;48.202;16.334;2023-06-10T03:21:35;98747.63;;;17.48;73.70
40155;BME280;25875;48.202;16.334;2023-06-10T03:24:03;98711.13;;;17.27;73.63
40155;BME280;25875;48.202;16.334;2023-06-10T03:26:30;98745.78;;;17.48;73.78
40155;BME280;25875;48.202;16.334;2023-06-10T03:28:58;98752.81;;;17.49;73.87
40155;BME280;25875;48.202;16.334;2023-06-10T03:31:24;98744.78;;;17.49;73.63
40155;BME280;25875;48.202;16.334;2023-06-10T03:33:51;98746.47;;;17.50;74.03
40155;BME280;25875;48.202;16.334;2023-06-10T03:36:18;98746.47;;;17.50;73.96
40155;BME280;25875;48.202;16.334;2023-06-10T03:38:46;98746.34;;;17.52;73.82
40155;BME280;25875;48.202;16.334;2023-06-10T03:41:13;98746.19;;;17.53;74.00
40155;BME280;25875;48.202;16.334;2023-06-10T03:43:40;98749.56;;;17.55;74.03
40155;BME280;25875;48.202;16.334;2023-06-10T03:46:07;98752.25;;;17.55;74.05
40155;BME280;25875;48.202;16.334;2023-06-10T03:48:34;98754.78;;;17.57;74.10
40155;BME280;25875;48.202;16.334;2023-06-10T03:51:01;98750.28;;;17.57;73.98
40155;BME280;25875;48.202;16.334;2023-06-10T03:53:28;98757.31;;;17.58;73.89
40155;BME280;25875;48.202;16.334;2023-06-10T03:55:58;98754.66;;;17.58;74.16
40155;BME280;25875;48.202;16.334;2023-06-10T03:58:25;98755.34;;;17.60;74.10
40155;BME280;25875;48.202;16.334;2023-06-10T04:00:52;98756.22;;;17.61;74.03
40155;BME280;25875;48.202;16.334;2023-06-10T04:03:18;98756.94;;;17.63;73.67
40155;BME280;25875;48.202;16.334;2023-06-10T04:05:46;98754.94;;;17.65;73.83
40155;BME280;25875;48.202;16.334;2023-06-10T04:08:13;98762.84;;;17.67;73.82
40155;BME280;25875;48.202;16.334;2023-06-10T04:10:40;98764.53;;;17.68;74.17
40155;BME280;25875;48.202;16.334;2023-06-10T04:13:08;98767.22;;;17.68;74.12
40155;BME280;25875;48.202;16.334;2023-06-10T04:15:35;98765.38;;;17.68;73.80
40155;BME280;25875;48.202;16.334;2023-06-10T04:18:02;98766.22;;;17.69;73.71
40155;BME280;25875;48.202;16.334;2023-06-10T04:20:28;98764.25;;;17.71;74.06
40155;BME280;25875;48.202;16.334;2023-06-10T04:22:55;98764.09;;;17.72;73.68
40155;BME280;25875;48.202;16.334;2023-06-10T04:25:22;98768.47;;;17.73;73.62
40155;BME280;25875;48.202;16.334;2023-06-10T04:27:49;98761.28;;;17.74;73.62
40155;BME280;25875;48.202;16.334;2023-06-10T04:30:17;98762.97;;;17.75;74.04
40155;BME280;25875;48.202;16.334;2023-06-10T04:32:44;98765.66;;;17.75;73.95
40155;BME280;25875;48.202;16.334;2023-06-10T04:35:12;98734.91;;;17.59;73.81
40155;BME280;25875;48.202;16.334;2023-06-10T04:37:39;98758.03;;;17.80;73.91
40155;BME280;25875;48.202;16.334;2023-06-10T04:40:07;98748.16;;;17.80;73.50
40155;BME280;25875;48.202;16.334;2023-06-10T04:42:34;98754.34;;;17.81;73.83
40155;BME280;25875;48.202;16.334;2023-06-10T04:45:01;98763.94;;;17.83;73.71
40155;BME280;25875;48.202;16.334;2023-06-10T04:47:29;98590.25;;;16.84;73.59
40155;BME280;25875;48.202;16.334;2023-06-10T04:49:58;98757.44;;;17.86;73.89
40155;BME280;25875;48.202;16.334;2023-06-10T04:52:25;98763.38;;;17.89;73.63
40155;BME280;25875;48.202;16.334;2023-06-10T04:54:52;98759.84;;;17.89;73.60
40155;BME280;25875;48.202;16.334;2023-06-10T04:57:18;98736.03;;;17.76;73.28
40155;BME280;25875;48.202;16.334;2023-06-10T04:59:45;98766.75;;;17.91;73.88
40155;BME280;25875;48.202;16.334;2023-06-10T05:02:12;98759.56;;;17.92;73.58
40155;BME280;25875;48.202;16.334;2023-06-10T05:04:40;98762.94;;;17.94;73.50
40155;BME280;25875;48.202;16.334;2023-06-10T05:07:07;98754.59;;;17.97;73.70
40155;BME280;25875;48.202;16.334;2023-06-10T05:09:34;98758.97;;;17.98;73.49
40155;BME280;25875;48.202;16.334;2023-06-10T05:12:01;98764.63;;;17.95;73.21
40155;BME280;25875;48.202;16.334;2023-06-10T05:14:28;98762.94;;;17.94;73.35
40155;BME280;25875;48.202;16.334;2023-06-10T05:16:54;98760.94;;;17.96;73.25
40155;BME280;25875;48.202;16.334;2023-06-10T05:19:21;98764.19;;;18.00;73.15
40155;BME280;25875;48.202;16.334;2023-06-10T05:21:49;98766.56;;;18.03;73.38
40155;BME280;25875;48.202;16.334;2023-06-10T05:24:16;98761.06;;;18.04;73.26
40155;BME280;25875;48.202;16.334;2023-06-10T05:26:42;98765.44;;;18.05;73.34
40155;BME280;25875;48.202;16.334;2023-06-10T05:29:09;98769.81;;;18.06;73.36
40155;BME280;25875;48.202;16.334;2023-06-10T05:31:36;98764.28;;;18.08;73.42
40155;BME280;25875;48.202;16.334;2023-06-10T05:34:03;98773.19;;;18.08;73.31
40155;BME280;25875;48.202;16.334;2023-06-10T05:36:29;98771.19;;;18.10;73.14
40155;BME280;25875;48.202;16.334;2023-06-10T05:38:59;98776.41;;;18.12;73.10
40155;BME280;25875;48.202;16.334;2023-06-10T05:41:25;98770.22;;;18.11;73.28
40155;BME280;25875;48.202;16.334;2023-06-10T05:43:52;98740.78;;;17.92;72.88
40155;BME280;25875;48.202;16.334;2023-06-10T05:46:19;98776.97;;;18.15;73.34
40155;BME280;25875;48.202;16.334;2023-06-10T05:48:46;98766.78;;;18.19;72.97
40155;BME280;25875;48.202;16.334;2023-06-10T05:51:12;98778.22;;;18.21;73.23
40155;BME280;25875;48.202;16.334;2023-06-10T05:53:39;98745.56;;;17.98;73.08
40155;BME280;25875;48.202;16.334;2023-06-10T05:56:07;98762.31;;;18.10;72.90
40155;BME280;25875;48.202;16.334;2023-06-10T05:58:34;98785.97;;;18.24;73.07
40155;BME280;25875;48.202;16.334;2023-06-10T06:01:01;98781.59;;;18.23;72.85
40155;BME280;25875;48.202;16.334;2023-06-10T06:03:28;98782.59;;;18.22;72.95
40155;BME280;25875;48.202;16.334;2023-06-10T06:05:55;98780.91;;;18.21;72.77
40155;BME280;25875;48.202;16.334;2023-06-10T06:08:21;98785.56;;;18.19;72.89
40155;BME280;25875;48.202;16.334;2023-06-10T06:10:48;98783.72;;;18.19;73.33
40155;BME280;25875;48.202;16.334;2023-06-10T06:13:16;98783.72;;;18.19;73.23
40155;BME280;25875;48.202;16.334;2023-06-10T06:15:43;98746.41;;;17.99;73.35
40155;BME280;25875;48.202;16.334;2023-06-10T06:18:10;98787.25;;;18.20;73.26
40155;BME280;25875;48.202;16.334;2023-06-10T06:20:37;98805.03;;;18.21;73.49
40155;BME280;25875;48.202;16.334;2023-06-10T06:23:03;98800.81;;;18.18;73.10
40155;BME280;25875;48.202;16.334;2023-06-10T06:25:30;98800.81;;;18.18;73.15
40155;BME280;25875;48.202;16.334;2023-06-10T06:27:57;98807.03;;;18.19;73.38
40155;BME280;25875;48.202;16.334;2023-06-10T06:30:25;98799.13;;;18.17;73.71
40155;BME280;25875;48.202;16.334;2023-06-10T06:32:52;98761.94;;;17.95;73.53
40155;BME280;25875;48.202;16.334;2023-06-10T06:35:19;98796.31;;;18.19;73.39
40155;BME280;25875;48.202;16.334;2023-06-10T06:37:46;98793.63;;;18.19;73.39
40155;BME280;25875;48.202;16.334;2023-06-10T06:40:13;98802.50;;;18.19;73.75
40155;BME280;25875;48.202;16.334;2023-06-10T06:42:39;98799.97;;;18.18;73.35
40155;BME280;25875;48.202;16.334;2023-06-10T06:45:07;98798.97;;;18.19;73.39
40155;BME280;25875;48.202;16.334;2023-06-10T06:47:35;98785.56;;;18.19;73.33
40155;BME280;25875;48.202;16.334;2023-06-10T06:50:02;98797.16;;;18.19;73.55
40155;BME280;25875;48.202;16.334;2023-06-10T06:52:29;98794.47;;;18.19;73.36
40155;BME280;25875;48.202;16.334;2023-06-10T06:54:55;98787.41;;;18.18;73.45
40155;BME280;25875;48.202;16.334;2023-06-10T06:57:22;98802.34;;;18.21;73.36
40155;BME280;25875;48.202;16.334;2023-06-10T06:59:49;98797.69;;;18.23;73.64
40155;BME280;25875;48.202;16.334;2023-06-10T07:02:16;98802.06;;;18.24;73.53
40155;BME280;25875;48.202;16.334;2023-06-10T07:04:45;98797.41;;;18.26;73.61
40155;BME280;25875;48.202;16.334;2023-06-10T07:07:14;98727.00;;;17.77;73.30
40155;BME280;25875;48.202;16.334;2023-06-10T07:09:41;98781.94;;;18.10;73.18
40155;BME280;25875;48.202;16.334;2023-06-10T07:12:08;98800.34;;;18.33;72.96
40155;BME280;25875;48.202;16.334;2023-06-10T07:14:35;98806.41;;;18.35;73.05
40155;BME280;25875;48.202;16.334;2023-06-10T07:17:02;98803.72;;;18.35;72.67
40155;BME280;25875;48.202;16.334;2023-06-10T07:19:29;98804.72;;;18.34;72.90
40155;BME280;25875;48.202;16.334;2023-06-10T07:21:57;98811.06;;;18.33;72.84
40155;BME280;25875;48.202;16.334;2023-06-10T07:24:24;98801.34;;;18.32;72.96
40155;BME280;25875;48.202;16.334;2023-06-10T07:26:50;98798.50;;;18.33;72.95
40155;BME280;25875;48.202;16.334;2023-06-10T07:29:17;98803.72;;;18.35;72.45
40155;BME280;25875;48.202;16.334;2023-06-10T07:31:44;98809.09;;;18.35;72.79
40155;BME280;25875;48.202;16.334;2023-06-10T07:34:10;98806.25;;;18.36;72.50
40155;BME280;25875;48.202;16.334;2023-06-10T07:36:37;98799.06;;;18.37;72.56
40155;BME280;25875;48.202;16.334;2023-06-10T07:39:05;98723.00;;;17.91;72.86
40155;BME280;25875;48.202;16.334;2023-06-10T07:41:33;98813.88;;;18.41;72.59
40155;BME280;25875;48.202;16.334;2023-06-10T07:44:00;98795.78;;;18.43;72.29
40155;BME280;25875;48.202;16.334;2023-06-10T07:46:27;98793.94;;;18.43;72.68
40155;BME280;25875;48.202;16.334;2023-06-10T07:48:54;98724.41;;;17.95;72.21
40155;BME280;25875;48.202;16.334;2023-06-10T07:51:21;98807.75;;;18.48;72.29
40155;BME280;25875;48.202;16.334;2023-06-10T07:53:48;98808.34;;;18.52;72.28
40155;BME280;25875;48.202;16.334;2023-06-10T07:56:16;98809.03;;;18.54;72.17
40155;BME280;25875;48.202;16.334;2023-06-10T07:58:43;98816.78;;;18.57;72.13
40155;BME280;25875;48.202;16.334;2023-06-10T08:01:10;98822.84;;;18.59;71.94
40155;BME280;25875;48.202;16.334;2023-06-10T08:03:36;98821.88;;;18.60;71.56
40155;BME280;25875;48.202;16.334;2023-06-10T08:06:03;98650.59;;;17.63;71.94
40155;BME280;25875;48.202;16.334;2023-06-10T08:08:31;98818.75;;;18.65;71.67
40155;BME280;25875;48.202;16.334;2023-06-10T08:10:57;98814.06;;;18.67;71.52
40155;BME280;25875;48.202;16.334;2023-06-10T08:13:25;98814.91;;;18.67;71.70
40155;BME280;25875;48.202;16.334;2023-06-10T08:15:52;98812.09;;;18.69;72.00
40155;BME280;25875;48.202;16.334;2023-06-10T08:18:20;98811.94;;;18.70;71.52
40155;BME280;25875;48.202;16.334;2023-06-10T08:20:47;98812.78;;;18.71;71.74
40155;BME280;25875;48.202;16.334;2023-06-10T08:23:14;98810.78;;;18.73;71.51
40155;BME280;25875;48.202;16.334;2023-06-10T08:25:41;98810.78;;;18.73;71.57
40155;BME280;25875;48.202;16.334;2023-06-10T08:28:08;98815.16;;;18.74;71.55
40155;BME280;25875;48.202;16.334;2023-06-10T08:30:36;98824.06;;;18.74;71.60
40155;BME280;25875;48.202;16.334;2023-06-10T08:33:03;98818.69;;;18.74;71.77
40155;BME280;25875;48.202;16.334;2023-06-10T08:35:30;98816.00;;;18.74;71.34
40155;BME280;25875;48.202;16.334;2023-06-10T08:37:56;98820.38;;;18.75;71.37
40155;BME280;25875;48.202;16.334;2023-06-10T08:40:23;98823.06;;;18.75;71.77
40155;BME280;25875;48.202;16.334;2023-06-10T08:42:57;98830.13;;;18.76;71.71
40155;BME280;25875;48.202;16.334;2023-06-10T08:45:28;98816.69;;;18.76;71.52
40155;BME280;25875;48.202;16.334;2023-06-10T08:47:58;98814.88;;;18.77;71.55
40155;BME280;25875;48.202;16.334;2023-06-10T08:50:28;98465.63;;;16.62;71.42
40155;BME280;25875;48.202;16.334;2023-06-10T08:52:58;98820.78;;;18.80;71.48
40155;BME280;25875;48.202;16.334;2023-06-10T08:55:29;98826.69;;;18.84;71.17
40155;BME280;25875;48.202;16.334;2023-06-10T08:57:57;98828.94;;;18.88;71.30
40155;BME280;25875;48.202;16.334;2023-06-10T09:00:25;98822.25;;;18.92;71.34
40155;BME280;25875;48.202;16.334;2023-06-10T09:02:52;98826.34;;;18.97;71.25
40155;BME280;25875;48.202;16.334;2023-06-10T09:05:20;98828.03;;;18.98;71.02
40155;BME280;25875;48.202;16.334;2023-06-10T09:07:48;98819.66;;;19.01;71.14
40155;BME280;25875;48.202;16.334;2023-06-10T09:10:15;98815.69;;;19.05;70.84
40155;BME280;25875;48.202;16.334;2023-06-10T09:12:42;98822.44;;;19.09;70.74
40155;BME280;25875;48.202;16.334;2023-06-10T09:15:09;98819.75;;;19.09;70.86
40155;BME280;25875;48.202;16.334;2023-06-10T09:17:37;98822.16;;;19.12;70.84
40155;BME280;25875;48.202;16.334;2023-06-10T09:20:06;98827.91;;;19.17;70.81
40155;BME280;25875;48.202;16.334;2023-06-10T09:22:35;98824.91;;;19.20;70.61
40155;BME280;25875;48.202;16.334;2023-06-10T09:25:02;98823.78;;;19.22;70.10
40155;BME280;25875;48.202;16.334;2023-06-10T09:27:31;98793.50;;;19.03;70.37
40155;BME280;25875;48.202;16.334;2023-06-10T09:29:58;98834.91;;;19.28;70.28
40155;BME280;25875;48.202;16.334;2023-06-10T09:32:25;98826.53;;;19.31;70.16
40155;BME280;25875;48.202;16.334;2023-06-10T09:34:53;98823.53;;;19.34;70.16
40155;BME280;25875;48.202;16.334;2023-06-10T09:37:20;98829.47;;;19.37;69.77
40155;BME280;25875;48.202;16.334;2023-06-10T09:40:02;98830.19;;;19.39;69.67
40155;BME280;25875;48.202;16.334;2023-06-10T09:42:32;98820.97;;;19.42;69.61
40155;BME280;25875;48.202;16.334;2023-06-10T09:45:00;98820.34;;;19.48;69.63
40155;BME280;25875;48.202;16.334;2023-06-10T09:47:27;98844.06;;;19.52;69.26
40155;BME280;25875;48.202;16.334;2023-06-10T09:49:54;98816.06;;;19.55;68.97
40155;BME280;25875;48.202;16.334;2023-06-10T09:52:23;98810.22;;;19.60;68.76
40155;BME280;25875;48.202;16.334;2023-06-10T09:54:51;98743.72;;;19.26;69.00
40155;BME280;25875;48.202;16.334;2023-06-10T09:57:21;98812.97;;;19.68;68.50
40155;BME280;25875;48.202;16.334;2023-06-10T09:59:48;98804.28;;;19.74;68.69
40155;BME280;25875;48.202;16.334;2023-06-10T10:02:19;98798.00;;;19.83;68.75
40155;BME280;25875;48.202;16.334;2023-06-10T10:04:46;98806.13;;;19.91;68.37
40155;BME280;25875;48.202;16.334;2023-06-10T10:07:13;98803.66;;;19.98;68.16
40155;BME280;25875;48.202;16.334;2023-06-10T10:09:40;98803.88;;;20.04;67.93
40155;BME280;25875;48.202;16.334;2023-06-10T10:12:10;98798.69;;;20.11;67.70
40155;BME280;25875;48.202;16.334;2023-06-10T10:14:39;98796.38;;;20.16;67.52
40155;BME280;25875;48.202;16.334;2023-06-10T10:17:10;98793.69;;;20.16;67.17
40155;BME280;25875;48.202;16.334;2023-06-10T10:19:43;98791.34;;;20.21;67.22
40155;BME280;25875;48.202;16.334;2023-06-10T10:22:19;98611.56;;;19.22;67.33
40155;BME280;25875;48.202;16.334;2023-06-10T10:24:49;98787.94;;;20.37;67.08
40155;BME280;25875;48.202;16.334;2023-06-10T10:27:18;98786.47;;;20.42;66.45
40155;BME280;25875;48.202;16.334;2023-06-10T10:29:52;98782.75;;;20.43;65.77
40155;BME280;25875;48.202;16.334;2023-06-10T10:32:23;98781.44;;;20.47;66.09
40155;BME280;25875;48.202;16.334;2023-06-10T10:34:59;98785.16;;;20.55;66.28
40155;BME280;25875;48.202;16.334;2023-06-10T10:37:31;98783.19;;;20.65;65.98
40155;BME280;25875;48.202;16.334;2023-06-10T10:39:58;98782.41;;;20.80;65.48
40155;BME280;25875;48.202;16.334;2023-06-10T10:42:26;98782.09;;;20.92;65.11
40155;BME280;25875;48.202;16.334;2023-06-10T10:44:55;98777.13;;;21.05;64.43
40155;BME280;25875;48.202;16.334;2023-06-10T10:47:27;98772.09;;;21.18;64.25
40155;BME280;25875;48.202;16.334;2023-06-10T10:49:55;98771.25;;;21.26;64.26
40155;BME280;25875;48.202;16.334;2023-06-10T10:52:24;98767.91;;;21.32;63.95
40155;BME280;25875;48.202;16.334;2023-06-10T10:54:53;98768.25;;;21.37;63.63
40155;BME280;25875;48.202;16.334;2023-06-10T10:57:21;98765.38;;;21.38;63.57
40155;BME280;25875;48.202;16.334;2023-06-10T10:59:55;98721.22;;;21.07;62.66
40155;BME280;25875;48.202;16.334;2023-06-10T11:02:36;98760.50;;;21.50;62.60
40155;BME280;25875;48.202;16.334;2023-06-10T11:05:06;98765.88;;;21.58;63.33
40155;BME280;25875;48.202;16.334;2023-06-10T11:07:34;98754.44;;;21.72;62.96
40155;BME280;25875;48.202;16.334;2023-06-10T11:10:02;98755.28;;;21.89;62.59
40155;BME280;25875;48.202;16.334;2023-06-10T11:12:41;98751.72;;;21.97;60.92
40155;BME280;25875;48.202;16.334;2023-06-10T11:15:10;98739.25;;;21.96;61.61
40155;BME280;25875;48.202;16.334;2023-06-10T11:17:37;98743.13;;;21.93;61.57
40155;BME280;25875;48.202;16.334;2023-06-10T11:20:04;98743.47;;;21.98;61.51
40155;BME280;25875;48.202;16.334;2023-06-10T11:22:32;98731.31;;;22.02;61.60
40155;BME280;25875;48.202;16.334;2023-06-10T11:24:59;98732.81;;;22.05;61.64
40155;BME280;25875;48.202;16.334;2023-06-10T11:27:37;98716.81;;;22.03;59.59
40155;BME280;25875;48.202;16.334;2023-06-10T11:30:25;98695.09;;;21.89;59.24
40155;BME280;25875;48.202;16.334;2023-06-10T11:32:52;98713.59;;;22.00;61.40
40155;BME280;25875;48.202;16.334;2023-06-10T11:35:20;98715.13;;;22.02;61.16
40155;BME280;25875;48.202;16.334;2023-06-10T11:37:50;98718.31;;;22.06;61.41
40155;BME280;25875;48.202;16.334;2023-06-10T11:40:17;98711.06;;;22.06;61.27
40155;BME280;25875;48.202;16.334;2023-06-10T11:42:43;98714.44;;;22.08;61.09
40155;BME280;25875;48.202;16.334;2023-06-10T11:45:15;98707.19;;;22.01;60.26
40155;BME280;25875;48.202;16.334;2023-06-10T11:47:56;98704.84;;;21.98;59.66
40155;BME280;25875;48.202;16.334;2023-06-10T11:50:31;98704.31;;;22.02;60.40
40155;BME280;25875;48.202;16.334;2023-06-10T11:52:57;98700.63;;;22.03;58.91
40155;BME280;25875;48.202;16.334;2023-06-10T11:55:25;98703.97;;;22.05;61.08
40155;BME280;25875;48.202;16.334;2023-06-10T11:57:51;98699.41;;;22.14;60.94
40155;BME280;25875;48.202;16.334;2023-06-10T12:00:23;98694.81;;;22.23;61.11
40155;BME280;25875;48.202;16.334;2023-06-10T12:02:56;98688.84;;;22.35;59.56
40155;BME280;25875;48.202;16.334;2023-06-10T12:05:24;98690.34;;;22.46;60.26
40155;BME280;25875;48.202;16.334;2023-06-10T12:08:09;98680.22;;;22.56;57.56
40155;BME280;25875;48.202;16.334;2023-06-10T12:10:40;98684.06;;;22.54;58.62
40155;BME280;25875;48.202;16.334;2023-06-10T12:13:07;98676.16;;;22.52;59.24
40155;BME280;25875;48.202;16.334;2023-06-10T12:15:34;98679.22;;;22.49;59.16
40155;BME280;25875;48.202;16.334;2023-06-10T12:18:02;98676.66;;;22.56;59.24
40155;BME280;25875;48.202;16.334;2023-06-10T12:20:31;98676.56;;;22.72;59.02
40155;BME280;25875;48.202;16.334;2023-06-10T12:22:59;98670.53;;;22.93;58.58
40155;BME280;25875;48.202;16.334;2023-06-10T12:25:27;98668.59;;;23.01;58.34
40155;BME280;25875;48.202;16.334;2023-06-10T12:27:57;98670.47;;;23.01;57.68
40155;BME280;25875;48.202;16.334;2023-06-10T12:30:25;98678.88;;;23.06;58.07
40155;BME280;25875;48.202;16.334;2023-06-10T12:32:53;98673.13;;;23.09;57.97
40155;BME280;25875;48.202;16.334;2023-06-10T12:35:22;98662.91;;;22.96;57.93
40155;BME280;25875;48.202;16.334;2023-06-10T12:37:58;98296.91;;;20.72;56.75
40155;BME280;25875;48.202;16.334;2023-06-10T12:40:27;98670.00;;;22.97;58.31
40155;BME280;25875;48.202;16.334;2023-06-10T12:44:17;98671.72;;;22.90;58.17
40155;BME280;25875;48.202;16.334;2023-06-10T12:46:44;98675.81;;;22.86;58.12
40155;BME280;25875;48.202;16.334;2023-06-10T12:49:19;98678.75;;;22.77;56.54
40155;BME280;25875;48.202;16.334;2023-06-10T12:51:47;98689.78;;;22.67;59.65
40155;BME280;25875;48.202;16.334;2023-06-10T12:54:14;98681.53;;;22.60;60.98
40155;BME280;25875;48.202;16.334;2023-06-10T12:56:40;98692.53;;;22.51;62.36